sensor_id;sensor_type;location;lat;lon;timestamp;pressure;altitude;pressure_sealevel;temperature;humidity
52777;BME280;38656;54.260;20.822;2023-03-14T00:01:31;98837.75;;;31.29;32.75
52777;BME280;38656;54.260;20.822;2023-03-14T00:03:57;98843.31;;;29.42;34.44
52777;BME280;38656;54.260;20.822;2023-03-14T00:06:24;98832.47;;;29.07;35.26
52777;BME280;38656;54.260;20.822;2023-03-14T00:08:50;98831.19;;;32.86;29.66
52777;BME280;38656;54.260;20.822;2023-03-14T00:11:19;98838.72;;;31.05;32.49
52777;BME280;38656;54.260;20.822;2023-03-14T00:13:50;98833.81;;;30.69;33.25
52777;BME280;38656;54.260;20.822;2023-03-14T00:16:16;98838.75;;;31.33;31.46
52777;BME280;38656;54.260;20.822;2023-03-14T00:18:43;98836.91;;;28.58;35.79
52777;BME280;38656;54.260;20.822;2023-03-14T00:21:11;98824.75;;;29.20;36.66
52777;BME280;38656;54.260;20.822;2023-03-14T00:23:39;98825.22;;;27.37;37.92
52777;BME280;38656;54.260;20.822;2023-03-14T00:26:12;98826.34;;;28.07;37.55
52777;BME280;38656;54.260;20.822;2023-03-14T00:28:39;98821.59;;;27.68;36.32
52777;BME280;38656;54.260;20.822;2023-03-14T00:31:08;98805.91;;;32.21;31.62
52777;BME280;38656;54.260;20.822;2023-03-14T00:33:35;98807.72;;;31.62;31.23
52777;BME280;38656;54.260;20.822;2023-03-14T00:36:04;98811.59;;;27.53;37.51
52777;BME280;38656;54.260;20.822;2023-03-14T00:38:32;98799.34;;;28.31;35.33
52777;BME280;38656;54.260;20.822;2023-03-14T00:40:58;98790.72;;;33.28;30.74
52777;BME280;38656;54.260;20.822;2023-03-14T00:43:25;98796.94;;;27.64;37.04
52777;BME280;38656;54.260;20.822;2023-03-14T00:45:52;98796.81;;;28.85;35.11
52777;BME280;38656;54.260;20.822;2023-03-14T00:48:19;98776.94;;;31.70;31.78
52777;BME280;38656;54.260;20.822;2023-03-14T00:50:46;98796.44;;;30.56;32.52
52777;BME280;38656;54.260;20.822;2023-03-14T00:53:12;98797.38;;;28.82;34.99
52777;BME280;38656;54.260;20.822;2023-03-14T00:55:40;98790.63;;;30.43;33.40
52777;BME280;38656;54.260;20.822;2023-03-14T00:58:09;98776.00;;;31.88;31.68
52777;BME280;38656;54.260;20.822;2023-03-14T01:00:36;98785.25;;;28.29;35.75
52777;BME280;38656;54.260;20.822;2023-03-14T01:03:02;98774.78;;;29.64;33.72
52777;BME280;38656;54.260;20.822;2023-03-14T01:05:29;98779.72;;;30.43;33.73
52777;BME280;38656;54.260;20.822;2023-03-14T01:07:55;98778.84;;;31.28;31.81
52777;BME280;38656;54.260;20.822;2023-03-14T01:10:23;98783.31;;;29.57;34.29
52777;BME280;38656;54.260;20.822;2023-03-14T01:12:49;98778.97;;;29.32;34.63
52777;BME280;38656;54.260;20.822;2023-03-14T01:15:15;98784.59;;;30.46;33.09
52777;BME280;38656;54.260;20.822;2023-03-14T01:17:42;98773.03;;;32.26;31.41
52777;BME280;38656;54.260;20.822;2023-03-14T01:20:11;98763.63;;;31.68;30.77
52777;BME280;38656;54.260;20.822;2023-03-14T01:22:39;98765.53;;;30.93;32.23
52777;BME280;38656;54.260;20.822;2023-03-14T01:25:10;98776.91;;;31.00;31.09
52777;BME280;38656;54.260;20.822;2023-03-14T01:27:37;98778.81;;;28.15;36.25
52777;BME280;38656;54.260;20.822;2023-03-14T01:30:04;98758.81;;;32.92;29.66
52777;BME280;38656;54.260;20.822;2023-03-14T01:32:31;98764.69;;;30.79;32.26
52777;BME280;38656;54.260;20.822;2023-03-14T01:34:57;98763.97;;;29.05;35.28
52777;BME280;38656;54.260;20.822;2023-03-14T01:37:23;98766.31;;;29.90;33.43
52777;BME280;38656;54.260;20.822;2023-03-14T01:39:49;98751.13;;;28.13;37.18
52777;BME280;38656;54.260;20.822;2023-03-14T01:42:16;98761.56;;;27.90;35.93
52777;BME280;38656;54.260;20.822;2023-03-14T01:44:53;98757.84;;;27.70;37.24
52777;BME280;38656;54.260;20.822;2023-03-14T01:47:20;98759.66;;;29.04;35.19
52777;BME280;38656;54.260;20.822;2023-03-14T01:49:48;98752.66;;;28.29;35.56
52777;BME280;38656;54.260;20.822;2023-03-14T01:52:36;98752.63;;;26.98;38.84
52777;BME280;38656;54.260;20.822;2023-03-14T01:55:12;98733.97;;;28.62;35.27
52777;BME280;38656;54.260;20.822;2023-03-14T01:57:43;98741.25;;;26.60;38.29
52777;BME280;38656;54.260;20.822;2023-03-14T02:00:14;98736.97;;;28.90;35.18
52777;BME280;38656;54.260;20.822;2023-03-14T02:02:45;98738.00;;;26.27;39.44
52777;BME280;38656;54.260;20.822;2023-03-14T02:05:15;98725.41;;;29.52;34.75
52777;BME280;38656;54.260;20.822;2023-03-14T02:07:47;98729.84;;;28.65;35.04
52777;BME280;38656;54.260;20.822;2023-03-14T02:10:17;98721.91;;;27.94;35.56
52777;BME280;38656;54.260;20.822;2023-03-14T02:12:47;98702.09;;;33.07;30.15
52777;BME280;38656;54.260;20.822;2023-03-14T02:15:14;98695.47;;;30.94;31.87
52777;BME280;38656;54.260;20.822;2023-03-14T02:17:41;98704.47;;;31.50;31.74
52777;BME280;38656;54.260;20.822;2023-03-14T02:22:43;98712.97;;;32.89;29.46
52777;BME280;38656;54.260;20.822;2023-03-14T02:25:17;98703.59;;;31.13;31.83
52777;BME280;38656;54.260;20.822;2023-03-14T02:27:47;98702.81;;;33.79;28.35
52777;BME280;38656;54.260;20.822;2023-03-14T02:30:20;98689.63;;;33.23;28.61
52777;BME280;38656;54.260;20.822;2023-03-14T02:32:49;98679.97;;;32.54;29.55
52777;BME280;38656;54.260;20.822;2023-03-14T02:35:24;98703.94;;;34.30;26.90
52777;BME280;38656;54.260;20.822;2023-03-14T02:38:15;98705.84;;;34.38;27.18
52777;BME280;38656;54.260;20.822;2023-03-14T02:40:42;98701.13;;;35.42;26.24
52777;BME280;38656;54.260;20.822;2023-03-14T02:43:09;98709.44;;;32.35;28.09
52777;BME280;38656;54.260;20.822;2023-03-14T02:45:38;98697.16;;;32.23;30.49
52777;BME280;38656;54.260;20.822;2023-03-14T02:48:13;98691.38;;;32.79;29.24
52777;BME280;38656;54.260;20.822;2023-03-14T02:50:40;98701.94;;;29.99;31.98
52777;BME280;38656;54.260;20.822;2023-03-14T02:53:07;98684.56;;;32.68;29.03
52777;BME280;38656;54.260;20.822;2023-03-14T02:55:33;98683.94;;;30.97;31.70
52777;BME280;38656;54.260;20.822;2023-03-14T02:57:59;98691.66;;;34.19;27.73
52777;BME280;38656;54.260;20.822;2023-03-14T03:00:26;98688.16;;;33.92;27.63
52777;BME280;38656;54.260;20.822;2023-03-14T03:02:52;98696.41;;;34.74;26.75
52777;BME280;38656;54.260;20.822;2023-03-14T03:05:19;98711.34;;;34.12;27.52
52777;BME280;38656;54.260;20.822;2023-03-14T03:07:45;98700.50;;;33.72;27.91
52777;BME280;38656;54.260;20.822;2023-03-14T03:10:11;98701.06;;;31.16;30.53
52777;BME280;38656;54.260;20.822;2023-03-14T03:12:37;98685.06;;;32.02;29.65
52777;BME280;38656;54.260;20.822;2023-03-14T03:15:04;98695.75;;;30.12;32.77
52777;BME280;38656;54.260;20.822;2023-03-14T03:17:30;98687.00;;;31.37;30.35
52777;BME280;38656;54.260;20.822;2023-03-14T03:19:56;98697.22;;;30.24;32.72
52777;BME280;38656;54.260;20.822;2023-03-14T03:22:23;98691.25;;;32.84;28.92
52777;BME280;38656;54.260;20.822;2023-03-14T03:24:49;98698.13;;;29.13;33.31
52777;BME280;38656;54.260;20.822;2023-03-14T03:27:15;98703.16;;;29.01;34.35
52777;BME280;38656;54.260;20.822;2023-03-14T03:29:41;98702.53;;;29.96;33.31
52777;BME280;38656;54.260;20.822;2023-03-14T03:32:08;98699.84;;;29.04;32.97
52777;BME280;38656;54.260;20.822;2023-03-14T03:34:34;98703.47;;;27.91;35.09
52777;BME280;38656;54.260;20.822;2023-03-14T03:37:00;98708.88;;;29.67;32.09
52777;BME280;38656;54.260;20.822;2023-03-14T03:39:27;98720.94;;;26.06;37.06
52777;BME280;38656;54.260;20.822;2023-03-14T03:41:53;98726.09;;;28.21;34.48
52777;BME280;38656;54.260;20.822;2023-03-14T03:44:19;98740.06;;;28.04;33.79
52777;BME280;38656;54.260;20.822;2023-03-14T03:46:45;98732.84;;;28.63;34.89
52777;BME280;38656;54.260;20.822;2023-03-14T03:49:11;98742.66;;;25.58;39.23
52777;BME280;38656;54.260;20.822;2023-03-14T03:51:39;98738.94;;;25.80;38.27
52777;BME280;38656;54.260;20.822;2023-03-14T03:54:05;98735.03;;;28.90;33.78
52777;BME280;38656;54.260;20.822;2023-03-14T03:56:31;98720.69;;;31.97;29.67
52777;BME280;38656;54.260;20.822;2023-03-14T03:58:57;98715.66;;;27.94;35.26
52777;BME280;38656;54.260;20.822;2023-03-14T04:01:24;98712.56;;;26.70;36.89
52777;BME280;38656;54.260;20.822;2023-03-14T04:03:50;98703.56;;;27.81;35.56
52777;BME280;38656;54.260;20.822;2023-03-14T04:06:16;98710.63;;;30.01;32.86
52777;BME280;38656;54.260;20.822;2023-03-14T04:08:42;98697.94;;;28.12;35.25
52777;BME280;38656;54.260;20.822;2023-03-14T04:11:09;98708.72;;;27.01;35.71
52777;BME280;38656;54.260;20.822;2023-03-14T04:13:35;98714.75;;;26.73;36.09
52777;BME280;38656;54.260;20.822;2023-03-14T04:16:02;98712.66;;;27.45;35.82
52777;BME280;38656;54.260;20.822;2023-03-14T04:18:28;98712.41;;;27.42;36.16
52777;BME280;38656;54.260;20.822;2023-03-14T04:20:57;98726.94;;;25.50;37.99
52777;BME280;38656;54.260;20.822;2023-03-14T04:23:24;98725.47;;;25.95;37.86
52777;BME280;38656;54.260;20.822;2023-03-14T04:25:53;98701.50;;;28.07;35.54
52777;BME280;38656;54.260;20.822;2023-03-14T04:28:19;98684.75;;;27.40;35.31
52777;BME280;38656;54.260;20.822;2023-03-14T04:30:45;98696.31;;;26.39;36.96
52777;BME280;38656;54.260;20.822;2023-03-14T04:33:11;98690.84;;;26.90;35.63
52777;BME280;38656;54.260;20.822;2023-03-14T04:35:41;98697.47;;;27.44;35.39
52777;BME280;38656;54.260;20.822;2023-03-14T04:38:07;98694.16;;;26.30;37.18
52777;BME280;38656;54.260;20.822;2023-03-14T04:40:33;98674.38;;;27.52;35.62
52777;BME280;38656;54.260;20.822;2023-03-14T04:42:59;98688.91;;;25.09;39.33
52777;BME280;38656;54.260;20.822;2023-03-14T04:45:25;98677.38;;;27.55;35.33
52777;BME280;38656;54.260;20.822;2023-03-14T04:47:51;98668.44;;;28.00;34.59
52777;BME280;38656;54.260;20.822;2023-03-14T04:50:18;98668.03;;;29.29;34.22
52777;BME280;38656;54.260;20.822;2023-03-14T04:52:44;98670.50;;;27.73;34.74
52777;BME280;38656;54.260;20.822;2023-03-14T04:55:10;98675.25;;;27.97;34.95
52777;BME280;38656;54.260;20.822;2023-03-14T04:57:36;98662.63;;;27.07;35.79
52777;BME280;38656;54.260;20.822;2023-03-14T05:00:04;98680.03;;;26.54;36.41
52777;BME280;38656;54.260;20.822;2023-03-14T05:02:34;98676.84;;;27.98;34.17
52777;BME280;38656;54.260;20.822;2023-03-14T05:05:00;98682.66;;;28.21;34.13
52777;BME280;38656;54.260;20.822;2023-03-14T05:07:26;98687.28;;;28.55;34.48
52777;BME280;38656;54.260;20.822;2023-03-14T05:09:53;98681.81;;;29.57;32.88
52777;BME280;38656;54.260;20.822;2023-03-14T05:12:20;98676.22;;;29.67;31.91
52777;BME280;38656;54.260;20.822;2023-03-14T05:14:46;98678.75;;;31.14;30.56
52777;BME280;38656;54.260;20.822;2023-03-14T05:17:12;98691.00;;;27.90;34.32
52777;BME280;38656;54.260;20.822;2023-03-14T05:19:41;98694.53;;;29.42;32.93
52777;BME280;38656;54.260;20.822;2023-03-14T05:22:07;98675.66;;;28.78;33.50
52777;BME280;38656;54.260;20.822;2023-03-14T05:24:33;98665.97;;;26.83;36.10
52777;BME280;38656;54.260;20.822;2023-03-14T05:26:59;98656.53;;;28.89;34.77
52777;BME280;38656;54.260;20.822;2023-03-14T05:29:26;98658.13;;;32.09;30.67
52777;BME280;38656;54.260;20.822;2023-03-14T05:31:52;98666.53;;;29.61;33.24
52777;BME280;38656;54.260;20.822;2023-03-14T05:34:18;98665.72;;;29.41;33.74
52777;BME280;38656;54.260;20.822;2023-03-14T05:36:47;98644.88;;;32.79;29.79
52777;BME280;38656;54.260;20.822;2023-03-14T05:39:13;98651.09;;;30.46;31.00
52777;BME280;38656;54.260;20.822;2023-03-14T05:41:39;98651.66;;;30.62;31.63
52777;BME280;38656;54.260;20.822;2023-03-14T05:44:05;98646.56;;;29.03;34.36
52777;BME280;38656;54.260;20.822;2023-03-14T05:46:31;98652.13;;;28.93;34.11
52777;BME280;38656;54.260;20.822;2023-03-14T05:48:59;98633.50;;;30.06;32.99
52777;BME280;38656;54.260;20.822;2023-03-14T05:51:25;98619.69;;;27.45;35.17
52777;BME280;38656;54.260;20.822;2023-03-14T05:53:51;98627.81;;;26.43;36.50
52777;BME280;38656;54.260;20.822;2023-03-14T05:56:18;98621.13;;;30.60;31.97
52777;BME280;38656;54.260;20.822;2023-03-14T05:58:44;98621.31;;;27.41;35.32
52777;BME280;38656;54.260;20.822;2023-03-14T06:01:11;98633.22;;;26.74;36.21
52777;BME280;38656;54.260;20.822;2023-03-14T06:03:37;98624.94;;;33.27;29.14
52777;BME280;38656;54.260;20.822;2023-03-14T06:06:03;98630.06;;;29.24;32.59
52777;BME280;38656;54.260;20.822;2023-03-14T06:08:29;98640.00;;;26.25;36.31
52777;BME280;38656;54.260;20.822;2023-03-14T06:10:57;98633.88;;;27.71;34.98
52777;BME280;38656;54.260;20.822;2023-03-14T06:13:24;98640.06;;;27.27;34.98
52777;BME280;38656;54.260;20.822;2023-03-14T06:15:50;98642.72;;;26.46;36.45
52777;BME280;38656;54.260;20.822;2023-03-14T06:18:16;98653.16;;;28.43;33.56
52777;BME280;38656;54.260;20.822;2023-03-14T06:20:43;98657.09;;;27.87;35.06
52777;BME280;38656;54.260;20.822;2023-03-14T06:23:09;98660.47;;;27.09;35.80
52777;BME280;38656;54.260;20.822;2023-03-14T06:25:36;98661.81;;;27.06;35.34
52777;BME280;38656;54.260;20.822;2023-03-14T06:28:02;98660.25;;;27.60;36.35
52777;BME280;38656;54.260;20.822;2023-03-14T06:30:28;98662.75;;;30.33;32.06
52777;BME280;38656;54.260;20.822;2023-03-14T06:32:55;98669.47;;;30.22;32.90
52777;BME280;38656;54.260;20.822;2023-03-14T06:35:24;98676.16;;;27.77;35.84
52777;BME280;38656;54.260;20.822;2023-03-14T06:37:50;98688.72;;;26.36;36.82
52777;BME280;38656;54.260;20.822;2023-03-14T06:40:16;98695.09;;;25.68;38.83
52777;BME280;38656;54.260;20.822;2023-03-14T06:42:44;98692.53;;;29.29;34.48
52777;BME280;38656;54.260;20.822;2023-03-14T06:45:11;98699.00;;;26.75;38.20
52777;BME280;38656;54.260;20.822;2023-03-14T06:47:38;98692.38;;;27.37;38.42
52777;BME280;38656;54.260;20.822;2023-03-14T06:50:06;98699.00;;;26.49;37.64
52777;BME280;38656;54.260;20.822;2023-03-14T06:52:32;98704.44;;;26.39;38.70
52777;BME280;38656;54.260;20.822;2023-03-14T06:54:58;98693.16;;;27.93;36.28
52777;BME280;38656;54.260;20.822;2023-03-14T06:57:24;98700.94;;;28.10;35.60
52777;BME280;38656;54.260;20.822;2023-03-14T06:59:51;98700.09;;;26.89;37.82
52777;BME280;38656;54.260;20.822;2023-03-14T07:02:17;98700.63;;;26.14;39.29
52777;BME280;38656;54.260;20.822;2023-03-14T07:04:43;98692.88;;;27.40;35.56
52777;BME280;38656;54.260;20.822;2023-03-14T07:07:09;98694.34;;;27.06;38.89
52777;BME280;38656;54.260;20.822;2023-03-14T07:09:35;98696.03;;;27.62;37.59
52777;BME280;38656;54.260;20.822;2023-03-14T07:12:02;98692.22;;;28.77;34.78
52777;BME280;38656;54.260;20.822;2023-03-14T07:14:30;98706.44;;;24.64;40.91
52777;BME280;38656;54.260;20.822;2023-03-14T07:16:56;98711.34;;;27.32;38.83
52777;BME280;38656;54.260;20.822;2023-03-14T07:19:22;98704.88;;;25.79;40.53
52777;BME280;38656;54.260;20.822;2023-03-14T07:21:49;98699.53;;;26.25;38.56
52777;BME280;38656;54.260;20.822;2023-03-14T07:24:15;98704.50;;;25.44;40.18
52777;BME280;38656;54.260;20.822;2023-03-14T07:26:41;98703.03;;;27.73;36.63
52777;BME280;38656;54.260;20.822;2023-03-14T07:29:07;98680.88;;;27.56;37.63
52777;BME280;38656;54.260;20.822;2023-03-14T07:31:33;98680.78;;;27.71;37.53
52777;BME280;38656;54.260;20.822;2023-03-14T07:34:00;98689.81;;;26.14;39.92
52777;BME280;38656;54.260;20.822;2023-03-14T07:36:26;98676.28;;;30.05;35.03
52777;BME280;38656;54.260;20.822;2023-03-14T07:38:52;98677.19;;;27.26;37.09
52777;BME280;38656;54.260;20.822;2023-03-14T07:41:18;98643.69;;;28.70;34.49
52777;BME280;38656;54.260;20.822;2023-03-14T07:43:46;98638.91;;;28.57;35.47
52777;BME280;38656;54.260;20.822;2023-03-14T07:46:12;98643.84;;;28.50;34.68
52777;BME280;38656;54.260;20.822;2023-03-14T07:48:39;98639.63;;;30.30;32.99
52777;BME280;38656;54.260;20.822;2023-03-14T07:51:05;98665.78;;;28.64;33.85
52777;BME280;38656;54.260;20.822;2023-03-14T07:53:31;98679.97;;;32.09;30.26
52777;BME280;38656;54.260;20.822;2023-03-14T07:55:57;98680.94;;;28.35;34.93
52777;BME280;38656;54.260;20.822;2023-03-14T07:58:24;98689.09;;;28.30;35.23
52777;BME280;38656;54.260;20.822;2023-03-14T08:00:51;98691.63;;;29.96;34.30
52777;BME280;38656;54.260;20.822;2023-03-14T08:03:18;98694.06;;;25.84;37.83
52777;BME280;38656;54.260;20.822;2023-03-14T08:05:47;98687.13;;;26.40;37.10
52777;BME280;38656;54.260;20.822;2023-03-14T08:08:13;98682.13;;;25.65;38.01
52777;BME280;38656;54.260;20.822;2023-03-14T08:10:39;98679.19;;;30.28;32.87
52777;BME280;38656;54.260;20.822;2023-03-14T08:13:05;98680.25;;;29.07;34.26
52777;BME280;38656;54.260;20.822;2023-03-14T08:15:32;98687.47;;;29.41;32.64
52777;BME280;38656;54.260;20.822;2023-03-14T08:17:58;98688.66;;;25.79;37.93
52777;BME280;38656;54.260;20.822;2023-03-14T08:20:27;98692.50;;;25.99;38.55
52777;BME280;38656;54.260;20.822;2023-03-14T08:22:56;98690.97;;;30.04;32.97
52777;BME280;38656;54.260;20.822;2023-03-14T08:25:24;98688.25;;;30.23;31.89
52777;BME280;38656;54.260;20.822;2023-03-14T08:27:50;98689.41;;;30.97;31.68
52777;BME280;38656;54.260;20.822;2023-03-14T08:30:19;98699.97;;;25.66;38.07
52777;BME280;38656;54.260;20.822;2023-03-14T08:32:46;98693.44;;;29.43;32.81
52777;BME280;38656;54.260;20.822;2023-03-14T08:35:12;98691.97;;;26.43;36.87
52777;BME280;38656;54.260;20.822;2023-03-14T08:37:38;98687.75;;;28.91;34.06
52777;BME280;38656;54.260;20.822;2023-03-14T08:40:06;98679.88;;;28.31;35.26
52777;BME280;38656;54.260;20.822;2023-03-14T08:42:36;98681.63;;;28.46;33.80
52777;BME280;38656;54.260;20.822;2023-03-14T08:45:04;98672.50;;;27.47;35.26
52777;BME280;38656;54.260;20.822;2023-03-14T08:47:30;98683.50;;;25.67;38.08
52777;BME280;38656;54.260;20.822;2023-03-14T08:49:57;98676.06;;;27.43;36.17
52777;BME280;38656;54.260;20.822;2023-03-14T08:52:23;98693.50;;;25.14;39.92
52777;BME280;38656;54.260;20.822;2023-03-14T08:54:49;98670.28;;;28.98;32.80
52777;BME280;38656;54.260;20.822;2023-03-14T08:57:15;98684.94;;;26.83;37.17
52777;BME280;38656;54.260;20.822;2023-03-14T08:59:41;98671.28;;;28.19;34.60
52777;BME280;38656;54.260;20.822;2023-03-14T09:02:10;98669.66;;;28.18;34.81
52777;BME280;38656;54.260;20.822;2023-03-14T09:04:37;98658.06;;;28.95;34.52
52777;BME280;38656;54.260;20.822;2023-03-14T09:07:03;98656.22;;;34.31;28.63
52777;BME280;38656;54.260;20.822;2023-03-14T09:09:29;98658.00;;;27.17;36.27
52777;BME280;38656;54.260;20.822;2023-03-14T09:11:58;98651.06;;;28.35;33.60
52777;BME280;38656;54.260;20.822;2023-03-14T09:14:24;98657.28;;;30.00;32.34
52777;BME280;38656;54.260;20.822;2023-03-14T09:16:51;98642.59;;;32.41;28.86
52777;BME280;38656;54.260;20.822;2023-03-14T09:19:17;98629.97;;;32.22;29.51
52777;BME280;38656;54.260;20.822;2023-03-14T09:21:43;98620.75;;;30.95;30.64
52777;BME280;38656;54.260;20.822;2023-03-14T09:24:09;98603.44;;;35.62;27.15
52777;BME280;38656;54.260;20.822;2023-03-14T09:26:35;98606.69;;;29.61;32.62
52777;BME280;38656;54.260;20.822;2023-03-14T09:29:02;98601.38;;;31.10;31.30
52777;BME280;38656;54.260;20.822;2023-03-14T09:31:28;98601.03;;;29.38;33.27
52777;BME280;38656;54.260;20.822;2023-03-14T09:33:55;98593.38;;;28.97;33.27
52777;BME280;38656;54.260;20.822;2023-03-14T09:36:21;98595.50;;;30.47;31.89
52777;BME280;38656;54.260;20.822;2023-03-14T09:38:47;98597.38;;;28.81;33.53
52777;BME280;38656;54.260;20.822;2023-03-14T09:41:35;98594.94;;;27.51;35.10
52777;BME280;38656;54.260;20.822;2023-03-14T09:44:16;98573.59;;;29.92;32.56
52777;BME280;38656;54.260;20.822;2023-03-14T09:46:47;98568.97;;;27.45;35.17
52777;BME280;38656;54.260;20.822;2023-03-14T09:49:31;98571.25;;;27.67;34.69
52777;BME280;38656;54.260;20.822;2023-03-14T09:52:05;98582.22;;;29.18;34.34
52777;BME280;38656;54.260;20.822;2023-03-14T09:54:39;98587.72;;;27.42;35.26
52777;BME280;38656;54.260;20.822;2023-03-14T09:57:12;98565.28;;;29.64;33.36
52777;BME280;38656;54.260;20.822;2023-03-14T09:59:39;98579.94;;;26.34;37.42
52777;BME280;38656;54.260;20.822;2023-03-14T10:02:20;98580.47;;;26.30;36.99
52777;BME280;38656;54.260;20.822;2023-03-14T10:04:48;98564.19;;;28.35;35.30
52777;BME280;38656;54.260;20.822;2023-03-14T10:07:22;98566.50;;;29.39;33.26
52777;BME280;38656;54.260;20.822;2023-03-14T10:09:51;98549.84;;;30.11;32.39
52777;BME280;38656;54.260;20.822;2023-03-14T10:12:18;98554.59;;;29.87;33.45
52777;BME280;38656;54.260;20.822;2023-03-14T10:14:48;98544.19;;;29.56;34.08
52777;BME280;38656;54.260;20.822;2023-03-14T10:17:16;98546.78;;;26.78;37.04
52777;BME280;38656;54.260;20.822;2023-03-14T10:19:59;98541.53;;;30.49;32.87
52777;BME280;38656;54.260;20.822;2023-03-14T10:22:30;98544.22;;;28.21;35.89
52777;BME280;38656;54.260;20.822;2023-03-14T10:25:05;98550.66;;;30.40;31.59
52777;BME280;38656;54.260;20.822;2023-03-14T10:27:35;98544.00;;;27.83;35.64
52777;BME280;38656;54.260;20.822;2023-03-14T10:30:05;98533.25;;;29.94;32.76
52777;BME280;38656;54.260;20.822;2023-03-14T10:32:36;98525.25;;;32.36;30.62
52777;BME280;38656;54.260;20.822;2023-03-14T10:35:31;98536.09;;;29.51;32.81
52777;BME280;38656;54.260;20.822;2023-03-14T10:38:02;98538.41;;;29.76;33.23
52777;BME280;38656;54.260;20.822;2023-03-14T10:40:40;98533.94;;;31.02;31.48
52777;BME280;38656;54.260;20.822;2023-03-14T10:43:14;98545.78;;;29.57;33.47
52777;BME280;38656;54.260;20.822;2023-03-14T10:45:43;98563.59;;;27.75;36.26
52777;BME280;38656;54.260;20.822;2023-03-14T10:48:37;98573.22;;;29.60;32.65
52777;BME280;38656;54.260;20.822;2023-03-14T10:51:07;98581.31;;;29.85;32.36
52777;BME280;38656;54.260;20.822;2023-03-14T10:53:39;98583.44;;;28.63;34.10
52777;BME280;38656;54.260;20.822;2023-03-14T10:56:11;98569.19;;;27.54;35.27
52777;BME280;38656;54.260;20.822;2023-03-14T10:58:43;98569.81;;;28.68;34.58
52777;BME280;38656;54.260;20.822;2023-03-14T11:03:52;98557.63;;;28.66;34.28
52777;BME280;38656;54.260;20.822;2023-03-14T11:06:32;98536.97;;;30.59;32.19
52777;BME280;38656;54.260;20.822;2023-03-14T11:09:11;98531.81;;;30.99;32.02
52777;BME280;38656;54.260;20.822;2023-03-14T11:11:45;98534.09;;;29.75;33.30
52777;BME280;38656;54.260;20.822;2023-03-14T11:17:15;98529.44;;;26.89;37.38
52777;BME280;38656;54.260;20.822;2023-03-14T11:19:57;98520.41;;;32.41;30.00
52777;BME280;38656;54.260;20.822;2023-03-14T11:27:48;98546.47;;;27.45;35.55
52777;BME280;38656;54.260;20.822;2023-03-14T11:33:47;98541.41;;;29.94;32.48
52777;BME280;38656;54.260;20.822;2023-03-14T11:36:25;98544.97;;;29.75;32.65
52777;BME280;38656;54.260;20.822;2023-03-14T11:38:56;98529.78;;;28.25;34.54
52777;BME280;38656;54.260;20.822;2023-03-14T11:41:30;98528.91;;;29.22;33.49
52777;BME280;38656;54.260;20.822;2023-03-14T11:43:59;98521.00;;;27.41;35.75
52777;BME280;38656;54.260;20.822;2023-03-14T11:46:36;98522.66;;;28.05;34.71
52777;BME280;38656;54.260;20.822;2023-03-14T11:51:46;98541.03;;;29.48;34.00
52777;BME280;38656;54.260;20.822;2023-03-14T11:57:03;98534.09;;;28.99;34.79
52777;BME280;38656;54.260;20.822;2023-03-14T12:07:21;98528.50;;;29.86;33.64
52777;BME280;38656;54.260;20.822;2023-03-14T12:09:51;98532.44;;;30.68;32.26
52777;BME280;38656;54.260;20.822;2023-03-14T12:12:24;98544.28;;;29.32;33.89
52777;BME280;38656;54.260;20.822;2023-03-14T12:15:01;98541.38;;;28.85;34.00
52777;BME280;38656;54.260;20.822;2023-03-14T12:20:19;98542.06;;;28.71;34.38
52777;BME280;38656;54.260;20.822;2023-03-14T12:22:57;98524.22;;;29.46;34.43
52777;BME280;38656;54.260;20.822;2023-03-14T12:25:30;98516.38;;;28.34;35.58
52777;BME280;38656;54.260;20.822;2023-03-14T12:30:30;98517.63;;;29.66;33.56
52777;BME280;38656;54.260;20.822;2023-03-14T12:35:44;98517.41;;;28.87;35.42
52777;BME280;38656;54.260;20.822;2023-03-14T12:46:58;98526.03;;;30.17;33.20
52777;BME280;38656;54.260;20.822;2023-03-14T12:49:31;98538.31;;;28.14;36.11
52777;BME280;38656;54.260;20.822;2023-03-14T12:52:02;98534.38;;;31.54;32.66
52777;BME280;38656;54.260;20.822;2023-03-14T12:54:48;98542.78;;;32.43;31.11
52777;BME280;38656;54.260;20.822;2023-03-14T12:57:36;98536.97;;;30.45;32.99
52777;BME280;38656;54.260;20.822;2023-03-14T13:00:22;98544.84;;;30.88;32.86
52777;BME280;38656;54.260;20.822;2023-03-14T13:02:50;98539.44;;;31.24;32.12
52777;BME280;38656;54.260;20.822;2023-03-14T13:05:21;98544.91;;;29.04;34.27
52777;BME280;38656;54.260;20.822;2023-03-14T13:10:30;98550.06;;;29.63;34.30
52777;BME280;38656;54.260;20.822;2023-03-14T13:15:42;98551.28;;;28.22;36.40
52777;BME280;38656;54.260;20.822;2023-03-14T13:23:32;98541.13;;;30.09;34.25
52777;BME280;38656;54.260;20.822;2023-03-14T13:26:00;98541.22;;;28.47;34.97
52777;BME280;38656;54.260;20.822;2023-03-14T13:28:28;98536.56;;;30.79;32.86
52777;BME280;38656;54.260;20.822;2023-03-14T13:31:03;98544.16;;;29.18;35.31
52777;BME280;38656;54.260;20.822;2023-03-14T13:33:30;98541.22;;;30.65;33.32
52777;BME280;38656;54.260;20.822;2023-03-14T13:36:02;98545.78;;;27.63;36.58
52777;BME280;38656;54.260;20.822;2023-03-14T13:38:32;98542.84;;;29.72;35.00
52777;BME280;38656;54.260;20.822;2023-03-14T13:41:00;98548.50;;;29.19;34.66
52777;BME280;38656;54.260;20.822;2023-03-14T13:43:36;98554.81;;;27.88;37.03
52777;BME280;38656;54.260;20.822;2023-03-14T13:46:05;98552.06;;;29.57;35.28
52777;BME280;38656;54.260;20.822;2023-03-14T13:48:35;98555.31;;;29.73;35.33
52777;BME280;38656;54.260;20.822;2023-03-14T13:51:07;98561.53;;;27.61;38.03
52777;BME280;38656;54.260;20.822;2023-03-14T13:53:46;98554.88;;;28.90;36.31
52777;BME280;38656;54.260;20.822;2023-03-14T13:56:13;98561.06;;;28.23;36.67